createdAt,value
2023-04-11T00:01:20.352Z,48.66
2023-04-11T00:03:49.542Z,48.51
2023-04-11T00:06:18.139Z,48.45
2023-04-11T00:08:48.076Z,48.20
2023-04-11T00:11:18.404Z,48.17
2023-04-11T00:13:48.856Z,48.07
2023-04-11T00:16:21.125Z,47.96
2023-04-11T00:18:49.721Z,47.85
2023-04-11T00:21:20.634Z,47.89
2023-04-11T00:23:49.145Z,48.03
2023-04-11T00:26:17.690Z,48.11
2023-04-11T00:28:52.580Z,48.13
2023-04-11T00:31:24.460Z,47.97
2023-04-11T00:33:56.463Z,47.81
2023-04-11T00:36:25.669Z,48.15
2023-04-11T00:38:58.606Z,48.17
2023-04-11T00:41:31.951Z,48.32
2023-04-11T00:44:03.228Z,48.29
2023-04-11T00:46:32.707Z,48.28
2023-04-11T00:49:01.339Z,48.17
2023-04-11T00:51:32.564Z,48.21
2023-04-11T00:54:01.822Z,48.18
2023-04-11T00:56:31.758Z,48.35
2023-04-11T00:59:01.830Z,48.21
2023-04-11T01:01:31.469Z,48.19
2023-04-11T01:04:02.535Z,47.89
2023-04-11T01:06:31.382Z,47.63
2023-04-11T01:09:00.490Z,47.52
2023-04-11T01:11:29.220Z,47.65
2023-04-11T01:13:57.719Z,47.72
2023-04-11T01:16:27.439Z,47.82
2023-04-11T01:18:56.614Z,47.75
2023-04-11T01:21:27.243Z,47.75
2023-04-11T01:23:56.677Z,47.51
2023-04-11T01:26:25.017Z,47.58
2023-04-11T01:28:54.044Z,47.73
2023-04-11T01:31:22.989Z,47.71
2023-04-11T01:33:51.574Z,47.75
2023-04-11T01:36:20.479Z,47.52
2023-04-11T01:38:51.267Z,47.32
2023-04-11T01:41:19.781Z,47.40
2023-04-11T01:43:48.115Z,46.96
2023-04-11T01:46:16.825Z,46.79
2023-04-11T01:48:45.937Z,46.85
2023-04-11T01:51:15.638Z,46.97
2023-04-11T01:53:47.587Z,47.07
2023-04-11T01:56:16.003Z,46.86
2023-04-11T01:58:45.338Z,46.83
2023-04-11T02:01:19.865Z,46.81
2023-04-11T02:03:49.094Z,46.89
2023-04-11T02:06:17.693Z,46.66
2023-04-11T02:08:54.181Z,46.54
2023-04-11T02:11:23.946Z,46.39
2023-04-11T02:13:53.098Z,46.41
2023-04-11T02:16:26.138Z,46.47
2023-04-11T02:18:55.484Z,46.48
2023-04-11T02:21:24.093Z,46.76
2023-04-11T02:23:55.628Z,46.86
2023-04-11T02:26:26.899Z,46.78
2023-04-11T02:28:57.701Z,46.53
2023-04-11T02:31:28.826Z,46.84
2023-04-11T02:33:57.510Z,46.67
2023-04-11T02:36:27.036Z,46.74
2023-04-11T02:38:55.834Z,46.65
2023-04-11T02:41:24.803Z,46.66
2023-04-11T02:43:54.285Z,46.48
2023-04-11T02:46:23.861Z,46.73
2023-04-11T02:48:52.431Z,46.57
2023-04-11T02:51:25.899Z,46.54
2023-04-11T02:53:54.736Z,46.31
2023-04-11T02:56:26.549Z,46.49
2023-04-11T02:58:58.476Z,46.51
2023-04-11T03:01:27.589Z,46.37
2023-04-11T03:04:00.526Z,46.12
2023-04-11T03:06:38.156Z,46.20
2023-04-11T03:09:06.989Z,46.12
2023-04-11T03:13:52.335Z,51.65
2023-04-11T03:16:19.836Z,46.56
2023-04-11T03:18:48.633Z,45.89
2023-04-11T03:21:15.929Z,45.86
2023-04-11T03:23:54.572Z,45.74
2023-04-11T03:26:26.780Z,45.88
2023-04-11T03:28:55.963Z,45.48
2023-04-11T03:31:24.394Z,45.52
2023-04-11T03:33:51.623Z,45.65
2023-04-11T03:36:18.935Z,45.70
2023-04-11T03:38:47.490Z,45.80
2023-04-11T03:41:14.930Z,45.63
2023-04-11T03:43:42.834Z,45.70
2023-04-11T03:46:10.397Z,45.85
2023-04-11T03:48:41.214Z,45.85
2023-04-11T03:51:09.095Z,45.85
2023-04-11T03:53:43.999Z,45.40
2023-04-11T03:56:21.674Z,45.83
2023-04-11T03:58:49.004Z,45.79
2023-04-11T04:01:16.644Z,45.74
2023-04-11T04:03:44.889Z,45.90
2023-04-11T04:06:13.326Z,45.66
2023-04-11T04:08:42.177Z,45.32
2023-04-11T04:11:10.265Z,45.78
2023-04-11T04:13:37.852Z,45.28
2023-04-11T04:16:11.833Z,45.36
2023-04-11T04:18:41.123Z,45.52
2023-04-11T04:21:08.312Z,45.80
2023-04-11T04:23:35.624Z,45.63
2023-04-11T04:26:24.540Z,45.23
2023-04-11T04:29:09.517Z,45.34
2023-04-11T04:31:52.436Z,45.39
2023-04-11T04:34:24.035Z,45.31
2023-04-11T04:36:56.033Z,45.15
2023-04-11T04:39:29.557Z,44.75
2023-04-11T04:42:01.113Z,45.11
2023-04-11T04:44:53.975Z,44.63
2023-04-11T04:47:24.689Z,44.63
2023-04-11T04:49:55.797Z,44.54
2023-04-11T04:52:27.147Z,44.63
2023-04-11T04:54:57.422Z,44.19
2023-04-11T04:57:31.457Z,43.71
2023-04-11T04:59:59.874Z,43.34
2023-04-11T05:02:27.280Z,43.24
2023-04-11T05:04:56.093Z,43.69
2023-04-11T05:07:23.299Z,43.29
2023-04-11T05:09:51.628Z,42.58
2023-04-11T05:12:26.509Z,42.73
2023-04-11T05:14:56.295Z,42.74
2023-04-11T05:17:27.232Z,42.46
2023-04-11T05:19:55.673Z,42.16
2023-04-11T05:22:22.669Z,41.46
2023-04-11T05:24:56.454Z,42.20
2023-04-11T05:27:23.409Z,41.79
2023-04-11T05:29:50.930Z,42.15
2023-04-11T05:32:21.271Z,42.14
2023-04-11T05:34:58.211Z,42.37
2023-04-11T05:37:46.646Z,40.82
2023-04-11T05:40:13.856Z,41.17
2023-04-11T05:42:42.202Z,40.22
2023-04-11T05:45:11.970Z,40.68
2023-04-11T05:47:39.295Z,40.54
2023-04-11T05:50:07.980Z,40.07
2023-04-11T05:52:35.159Z,40.12
2023-04-11T05:55:04.010Z,40.47
2023-04-11T05:57:31.620Z,40.06
2023-04-11T06:00:01.326Z,40.43
2023-04-11T06:02:30.272Z,39.76
2023-04-11T06:04:57.558Z,39.50
2023-04-11T06:07:27.167Z,39.53
2023-04-11T06:09:54.270Z,39.17
2023-04-11T06:12:22.217Z,38.75
2023-04-11T06:14:49.980Z,38.41
2023-04-11T06:17:17.074Z,39.23
2023-04-11T06:19:47.475Z,38.53
2023-04-11T06:22:14.614Z,38.78
2023-04-11T06:24:41.640Z,38.59
2023-04-11T06:27:13.527Z,38.89
2023-04-11T06:29:41.008Z,38.61
2023-04-11T06:32:07.981Z,38.93
2023-04-11T06:34:35.189Z,38.48
2023-04-11T06:37:03.400Z,38.31
2023-04-11T06:39:30.313Z,38.55
2023-04-11T06:41:57.079Z,37.96
2023-04-11T06:44:25.379Z,38.44
2023-04-11T06:47:00.194Z,38.08
2023-04-11T06:49:28.037Z,37.92
2023-04-11T06:51:55.517Z,38.03
2023-04-11T06:54:23.680Z,37.04
2023-04-11T06:56:51.104Z,37.78
2023-04-11T06:59:24.731Z,38.05
2023-04-11T07:01:52.096Z,37.96
2023-04-11T07:04:19.192Z,38.13
2023-04-11T07:06:50.021Z,36.85
2023-04-11T07:09:17.896Z,36.80
2023-04-11T07:11:45.745Z,37.55
2023-04-11T07:14:16.787Z,37.42
2023-04-11T07:16:44.042Z,37.45
2023-04-11T07:19:11.270Z,37.32
2023-04-11T07:21:38.362Z,37.20
2023-04-11T07:24:06.221Z,36.90
2023-04-11T07:26:34.824Z,37.29
2023-04-11T07:29:02.198Z,37.11
2023-04-11T07:31:29.484Z,36.69
2023-04-11T07:33:56.509Z,36.13
2023-04-11T07:36:26.149Z,36.40
2023-04-11T07:38:53.581Z,36.54
2023-04-11T07:41:20.911Z,36.01
2023-04-11T07:43:48.267Z,36.13
2023-04-11T07:46:15.323Z,36.21
2023-04-11T07:48:44.903Z,35.78
2023-04-11T07:51:11.808Z,35.92
2023-04-11T07:53:38.922Z,36.21
2023-04-11T07:56:06.377Z,36.18
2023-04-11T07:58:33.434Z,35.14
2023-04-11T08:01:02.404Z,35.49
2023-04-11T08:03:31.636Z,34.85
2023-04-11T08:05:58.781Z,35.61
2023-04-11T08:08:29.924Z,34.63
2023-04-11T08:10:56.847Z,35.02
2023-04-11T08:13:23.849Z,35.13
2023-04-11T08:15:52.152Z,35.16
2023-04-11T08:18:23.688Z,35.08
2023-04-11T08:20:50.551Z,35.15
2023-04-11T08:23:21.110Z,34.91
2023-04-11T08:25:48.457Z,34.89
2023-04-11T08:28:15.406Z,34.87
2023-04-11T08:30:43.159Z,34.93
2023-04-11T08:33:11.693Z,34.77
2023-04-11T08:35:42.380Z,34.27
2023-04-11T08:38:10.374Z,34.36
2023-04-11T08:40:37.553Z,34.53
2023-04-11T08:43:09.584Z,34.56
2023-04-11T08:45:36.486Z,34.20
2023-04-11T08:48:03.670Z,34.40
2023-04-11T08:50:31.486Z,34.54
2023-04-11T08:53:02.989Z,33.90
2023-04-11T08:55:31.291Z,33.85
2023-04-11T08:58:02.440Z,34.14
2023-04-11T09:00:31.993Z,33.91
2023-04-11T09:03:03.699Z,33.85
2023-04-11T09:05:39.719Z,33.76
2023-04-11T09:08:08.948Z,33.59
2023-04-11T09:10:36.863Z,33.77
2023-04-11T09:13:23.636Z,33.28
2023-04-11T09:16:09.890Z,33.84
2023-04-11T09:18:38.465Z,34.06
2023-04-11T09:21:10.320Z,33.60
2023-04-11T09:23:38.021Z,34.07
2023-04-11T09:26:06.272Z,33.87
2023-04-11T09:28:53.012Z,33.96
2023-04-11T09:31:20.897Z,33.77
2023-04-11T09:33:55.350Z,33.48
2023-04-11T09:36:23.497Z,33.54
2023-04-11T09:38:53.594Z,33.95
2023-04-11T09:41:31.015Z,34.05
2023-04-11T09:43:58.256Z,34.06
2023-04-11T09:46:25.664Z,33.56
2023-04-11T09:48:54.275Z,33.98
2023-04-11T09:51:35.180Z,33.67
2023-04-11T09:54:04.220Z,33.27
2023-04-11T09:56:33.663Z,33.20
2023-04-11T09:59:01.190Z,33.32
2023-04-11T10:01:28.378Z,33.31
2023-04-11T10:03:56.060Z,33.32
2023-04-11T10:07:03.310Z,33.19
2023-04-11T10:09:31.868Z,33.33
2023-04-11T10:12:02.217Z,32.86
2023-04-11T10:14:39.415Z,32.98
2023-04-11T10:17:16.937Z,33.23
2023-04-11T10:19:47.592Z,32.95
2023-04-11T10:22:42.643Z,33.15
2023-04-11T10:25:16.518Z,33.02
2023-04-11T10:27:48.710Z,33.14
2023-04-11T10:30:16.189Z,33.09
2023-04-11T10:33:08.730Z,33.44
2023-04-11T10:35:35.749Z,33.02
2023-04-11T10:38:02.781Z,32.99
2023-04-11T10:40:29.772Z,32.62
2023-04-11T10:42:57.685Z,32.75
2023-04-11T10:45:28.002Z,32.87
2023-04-11T10:47:58.449Z,32.81
2023-04-11T10:50:28.803Z,32.53
2023-04-11T10:53:04.400Z,32.80
2023-04-11T10:55:47.875Z,32.65
2023-04-11T10:58:19.273Z,32.61
2023-04-11T11:00:47.072Z,32.53
2023-04-11T11:03:24.543Z,32.53
2023-04-11T11:05:58.417Z,32.44
2023-04-11T11:08:33.791Z,32.29
2023-04-11T11:11:01.763Z,32.17
2023-04-11T11:13:43.015Z,32.18
2023-04-11T11:16:13.766Z,32.01
2023-04-11T11:18:41.389Z,32.02
2023-04-11T11:21:14.128Z,31.91
2023-04-11T11:23:53.935Z,31.94
2023-04-11T11:26:21.428Z,32.04
2023-04-11T11:28:48.365Z,32.04
2023-04-11T11:31:15.476Z,31.91
2023-04-11T11:33:42.818Z,32.09
2023-04-11T11:36:11.200Z,31.89
2023-04-11T11:38:37.959Z,31.98
2023-04-11T11:41:04.761Z,31.29
2023-04-11T11:43:35.437Z,31.61
2023-04-11T11:46:09.598Z,31.27
2023-04-11T11:48:37.835Z,31.37
2023-04-11T11:51:05.582Z,31.28
2023-04-11T11:53:33.474Z,30.94
2023-04-11T11:56:11.930Z,31.09
2023-04-11T11:58:44.053Z,31.03
2023-04-11T12:03:41.621Z,30.80
2023-04-11T12:06:10.184Z,30.85
2023-04-11T12:08:41.043Z,30.85
2023-04-11T12:11:16.150Z,30.79
2023-04-11T12:13:45.028Z,30.69
2023-04-11T12:16:13.872Z,30.28
2023-04-11T12:18:41.576Z,30.46
2023-04-11T12:21:08.573Z,30.25
2023-04-11T12:23:35.477Z,30.40
2023-04-11T12:26:02.815Z,30.53
2023-04-11T12:28:30.456Z,30.46
2023-04-11T12:30:57.282Z,30.20
2023-04-11T12:33:24.102Z,30.24
2023-04-11T12:35:52.233Z,30.28
2023-04-11T12:38:23.229Z,30.40
2023-04-11T12:41:00.384Z,30.00
2023-04-11T12:43:35.987Z,29.77
2023-04-11T12:46:03.344Z,30.04
2023-04-11T12:48:30.876Z,30.16
2023-04-11T12:51:02.306Z,29.74
2023-04-11T12:53:30.303Z,29.98
2023-04-11T12:55:57.158Z,30.01
2023-04-11T12:58:24.424Z,30.03
2023-04-11T13:00:51.789Z,29.76
2023-04-11T13:03:19.352Z,29.73
2023-04-11T13:05:48.167Z,29.68
2023-04-11T13:08:15.495Z,29.16
2023-04-11T13:10:42.467Z,29.25
2023-04-11T13:13:18.078Z,28.95
2023-04-11T13:15:46.455Z,28.66
2023-04-11T13:18:13.920Z,28.11
2023-04-11T13:20:42.112Z,28.21
2023-04-11T13:23:10.478Z,28.26
2023-04-11T13:25:38.675Z,28.04
2023-04-11T13:28:05.950Z,28.28
2023-04-11T13:30:32.838Z,27.86
2023-04-11T13:33:00.551Z,27.93
2023-04-11T13:35:27.803Z,28.27
2023-04-11T13:37:54.946Z,28.08
2023-04-11T13:40:21.968Z,28.22
2023-04-11T13:42:48.993Z,28.35
2023-04-11T13:45:16.025Z,27.72
2023-04-11T13:47:44.514Z,27.45
2023-04-11T13:50:12.100Z,27.29
2023-04-11T13:52:39.411Z,27.73
2023-04-11T13:55:08.166Z,27.80
2023-04-11T13:57:35.187Z,26.78
2023-04-11T14:00:11.235Z,27.07
2023-04-11T14:02:40.221Z,26.96
2023-04-11T14:05:08.627Z,27.05
2023-04-11T14:07:35.621Z,26.61
2023-04-11T14:10:03.133Z,26.76
2023-04-11T14:12:33.410Z,26.71
2023-04-11T14:15:00.573Z,27.26
2023-04-11T14:17:29.154Z,27.05
2023-04-11T14:20:00.037Z,26.93
2023-04-11T14:22:27.491Z,26.89
2023-04-11T14:24:54.515Z,27.13
2023-04-11T14:27:21.588Z,27.41
2023-04-11T14:29:48.520Z,27.37
2023-04-11T14:32:15.516Z,27.28
2023-04-11T14:34:42.787Z,27.53
2023-04-11T14:37:10.035Z,27.32
2023-04-11T14:39:39.424Z,27.14
2023-04-11T14:42:06.679Z,27.22
2023-04-11T14:44:35.081Z,26.76
2023-04-11T14:47:01.860Z,27.23
2023-04-11T14:49:29.492Z,27.44
2023-04-11T14:52:02.350Z,27.31
2023-04-11T14:54:29.910Z,27.53
2023-04-11T14:56:57.322Z,27.64
2023-04-11T14:59:24.142Z,27.27
2023-04-11T15:01:51.971Z,27.37
2023-04-11T15:04:19.431Z,27.59
2023-04-11T15:06:48.075Z,27.42
2023-04-11T15:09:19.515Z,27.51
2023-04-11T15:11:46.565Z,27.57
2023-04-11T15:14:15.551Z,27.30
2023-04-11T15:16:44.374Z,27.49
2023-04-11T15:19:11.353Z,27.66
2023-04-11T15:21:38.727Z,27.63
2023-04-11T15:24:05.967Z,27.61
2023-04-11T15:26:33.496Z,27.39
2023-04-11T15:29:59.915Z,29.97
2023-04-11T15:32:29.135Z,28.13
2023-04-11T15:34:58.440Z,27.99
2023-04-11T15:37:29.351Z,28.11
2023-04-11T15:39:58.216Z,28.20
2023-04-11T15:42:29.620Z,28.33
2023-04-11T15:44:58.363Z,28.36
2023-04-11T15:47:27.300Z,28.29
2023-04-11T15:49:55.760Z,28.53
2023-04-11T15:52:24.217Z,28.33
2023-04-11T15:54:52.548Z,28.48
2023-04-11T15:57:20.902Z,28.30
2023-04-11T15:59:49.575Z,28.50
2023-04-11T16:02:19.808Z,28.40
2023-04-11T16:04:51.261Z,28.62
2023-04-11T16:07:23.451Z,28.72
2023-04-11T16:09:52.703Z,28.96
2023-04-11T16:12:21.994Z,28.80
2023-04-11T16:14:50.404Z,28.92
2023-04-11T16:17:21.149Z,28.92
2023-04-11T16:19:51.668Z,29.00
2023-04-11T16:22:21.030Z,29.00
2023-04-11T16:24:49.636Z,29.09
2023-04-11T16:27:20.025Z,29.15
2023-04-11T16:29:51.208Z,29.17
2023-04-11T16:32:19.567Z,29.11
2023-04-11T16:34:47.867Z,29.11
2023-04-11T16:37:18.339Z,29.16
2023-04-11T16:39:47.369Z,29.31
2023-04-11T16:42:16.343Z,29.29
2023-04-11T16:44:45.526Z,29.24
2023-04-11T16:47:14.205Z,29.38
2023-04-11T16:49:44.346Z,29.31
2023-04-11T16:52:13.497Z,29.19
2023-04-11T16:54:42.168Z,29.20
2023-04-11T16:57:10.937Z,29.55
2023-04-11T16:59:40.263Z,29.30
2023-04-11T17:02:08.824Z,29.47
2023-04-11T17:04:38.722Z,29.53
2023-04-11T17:07:10.072Z,29.54
2023-04-11T17:09:39.419Z,29.52
2023-04-11T17:12:07.929Z,29.81
2023-04-11T17:14:42.091Z,29.65
2023-04-11T17:17:10.598Z,29.95
2023-04-11T17:19:38.939Z,29.81
2023-04-11T17:22:08.491Z,29.77
2023-04-11T17:24:37.355Z,29.92
2023-04-11T17:27:09.527Z,30.10
2023-04-11T17:29:38.696Z,30.01
2023-04-11T17:32:07.364Z,30.10
2023-04-11T17:34:36.997Z,30.24
2023-04-11T17:37:06.614Z,30.13
2023-04-11T17:39:35.529Z,30.38
2023-04-11T17:42:06.747Z,30.22
2023-04-11T17:44:36.988Z,30.38
2023-04-11T17:47:06.920Z,30.32
2023-04-11T17:49:36.561Z,30.63
2023-04-11T17:52:05.108Z,30.82
2023-04-11T17:54:34.448Z,30.74
2023-04-11T17:57:03.650Z,30.81
2023-04-11T17:59:41.040Z,31.06
2023-04-11T18:02:10.180Z,31.00
2023-04-11T18:04:38.952Z,30.73
2023-04-11T18:07:08.503Z,30.76
2023-04-11T18:09:38.689Z,30.54
2023-04-11T18:12:07.171Z,30.57
2023-04-11T18:14:43.043Z,30.68
2023-04-11T18:17:12.502Z,30.59
2023-04-11T18:19:40.985Z,30.65
2023-04-11T18:22:12.066Z,30.59
2023-04-11T18:24:41.956Z,30.58
2023-04-11T18:27:12.229Z,30.51
2023-04-11T18:29:41.189Z,30.53
2023-04-11T18:32:09.571Z,30.45
2023-04-11T18:34:38.257Z,30.50
2023-04-11T18:37:06.759Z,30.54
2023-04-11T18:39:35.521Z,30.57
2023-04-11T18:42:04.837Z,30.67
2023-04-11T18:44:34.833Z,30.57
2023-04-11T18:47:06.004Z,30.67
2023-04-11T18:49:38.222Z,30.55
2023-04-11T18:52:06.700Z,30.68
2023-04-11T18:54:42.816Z,30.59
2023-04-11T18:57:14.451Z,30.63
2023-04-11T18:59:44.395Z,30.56
2023-04-11T19:02:17.348Z,30.77
2023-04-11T19:04:49.579Z,30.80
2023-04-11T19:07:18.108Z,30.98
2023-04-11T19:09:48.336Z,31.04
2023-04-11T19:12:17.376Z,30.96
2023-04-11T19:14:45.963Z,30.92
2023-04-11T19:17:15.631Z,30.88
2023-04-11T19:19:44.520Z,30.87
2023-04-11T19:22:12.817Z,30.80
2023-04-11T19:24:41.830Z,30.86
2023-04-11T19:27:10.279Z,30.85
2023-04-11T19:29:41.066Z,30.85
2023-04-11T19:32:09.722Z,30.91
2023-04-11T19:34:38.208Z,30.88
2023-04-11T19:37:08.261Z,30.90
2023-04-11T19:39:38.282Z,30.94
2023-04-11T19:42:08.861Z,31.14
2023-04-11T19:44:38.657Z,31.04
2023-04-11T19:47:06.927Z,31.16
2023-04-11T19:49:35.438Z,31.16
2023-04-11T19:52:03.807Z,31.20
2023-04-11T19:54:33.684Z,31.18
2023-04-11T19:57:02.455Z,31.32
2023-04-11T19:59:30.880Z,31.22
2023-04-11T20:02:01.760Z,31.33
2023-04-11T20:04:32.366Z,31.19
2023-04-11T20:07:01.138Z,31.49
2023-04-11T20:09:41.866Z,31.61
2023-04-11T20:12:13.215Z,31.31
2023-04-11T20:14:41.469Z,31.41
2023-04-11T20:17:12.958Z,31.18
2023-04-11T20:19:43.704Z,31.21
2023-04-11T20:22:17.585Z,31.29
2023-04-11T20:24:47.295Z,31.47
2023-04-11T20:27:16.311Z,31.56
2023-04-11T20:29:46.256Z,31.66
2023-04-11T20:32:14.762Z,31.61
2023-04-11T20:34:43.090Z,31.66
2023-04-11T20:37:13.299Z,31.74
2023-04-11T20:39:41.920Z,31.95
2023-04-11T20:42:10.977Z,32.10
2023-04-11T20:44:39.883Z,32.19
2023-04-11T20:47:09.318Z,32.65
2023-04-11T20:49:39.025Z,32.76
2023-04-11T20:52:07.974Z,32.96
2023-04-11T20:54:37.072Z,33.42
2023-04-11T20:57:05.456Z,33.37
2023-04-11T20:59:34.440Z,33.79
2023-04-11T21:02:02.821Z,33.78
2023-04-11T21:04:31.583Z,34.00
2023-04-11T21:07:01.504Z,34.49
2023-04-11T21:09:30.180Z,34.73
2023-04-11T21:11:58.624Z,34.89
2023-04-11T21:14:27.242Z,34.90
2023-04-11T21:16:56.644Z,35.67
2023-04-11T21:19:25.255Z,35.63
2023-04-11T21:21:57.371Z,35.64
2023-04-11T21:24:27.117Z,35.92
2023-04-11T21:26:55.490Z,35.77
2023-04-11T21:29:28.662Z,36.15
2023-04-11T21:31:57.101Z,36.39
2023-04-11T21:34:25.507Z,36.48
2023-04-11T21:36:54.657Z,36.18
2023-04-11T21:39:25.151Z,36.30
2023-04-11T21:41:53.637Z,37.19
2023-04-11T21:44:22.762Z,37.64
2023-04-11T21:46:52.031Z,37.45
2023-04-11T21:49:20.445Z,37.61
2023-04-11T21:51:53.443Z,37.49
2023-04-11T21:54:22.251Z,37.45
2023-04-11T21:56:51.072Z,38.31
2023-04-11T21:59:25.076Z,38.68
2023-04-11T22:01:53.894Z,38.15
2023-04-11T22:04:23.370Z,38.92
2023-04-11T22:06:54.351Z,39.37
2023-04-11T22:09:24.262Z,39.03
2023-04-11T22:11:53.083Z,39.57
2023-04-11T22:14:28.086Z,39.56
2023-04-11T22:16:58.468Z,39.87
2023-04-11T22:19:28.795Z,39.54
2023-04-11T22:22:03.722Z,38.63
2023-04-11T22:24:32.624Z,39.04
2023-04-11T22:27:04.495Z,38.81
2023-04-11T22:29:34.472Z,38.48
2023-04-11T22:32:04.358Z,38.59
2023-04-11T22:34:32.793Z,38.84
2023-04-11T22:37:02.283Z,38.93
2023-04-11T22:39:31.053Z,39.89
2023-04-11T22:42:00.612Z,39.90
2023-04-11T22:44:29.162Z,40.01
2023-04-11T22:47:09.049Z,40.26
2023-04-11T22:49:40.592Z,40.81
2023-04-11T22:52:10.772Z,41.19
2023-04-11T22:54:39.359Z,41.53
2023-04-11T22:57:07.635Z,41.07
2023-04-11T22:59:43.073Z,41.04
2023-04-11T23:02:12.250Z,41.47
2023-04-11T23:04:40.962Z,41.40
2023-04-11T23:07:10.765Z,42.20
2023-04-11T23:09:39.577Z,42.39
2023-04-11T23:12:11.850Z,42.54
2023-04-11T23:14:42.920Z,43.08
2023-04-11T23:17:12.628Z,43.34
2023-04-11T23:19:42.476Z,43.49
2023-04-11T23:22:11.719Z,42.99
2023-04-11T23:24:40.327Z,43.86
2023-04-11T23:27:09.018Z,44.28
2023-04-11T23:29:38.634Z,44.22
2023-04-11T23:32:07.726Z,44.50
2023-04-11T23:34:38.824Z,44.75
2023-04-11T23:37:08.304Z,44.12
2023-04-11T23:39:36.999Z,43.93
2023-04-11T23:42:07.854Z,44.55
2023-04-11T23:44:37.233Z,44.80
2023-04-11T23:47:09.843Z,45.40
2023-04-11T23:49:41.016Z,45.47
2023-04-11T23:52:11.269Z,45.49
2023-04-11T23:54:40.649Z,45.71
2023-04-11T23:57:09.203Z,45.99
2023-04-11T23:59:37.742Z,46.29
